San Francisco, CA (94117)

1:41 PM PDT on August 04, 2015 (GMT -0700)
Haighters Gonna Haight | | Change Station
CLOSE
Current Station
Personal Weather Station
Location: San Francisco, CA
Elevation: 292 ft
Nearby Weather Stations

Elev 292 ft 37.77 °N, 122.44 °W | Updated 12 seconds ago

Mostly Cloudy
Mostly Cloudy
70.7 °F
Feels Like 76 °F
N
0.0
Wind Variable Wind from NNW
Gusts 5.0 mph

Today
High -- | Low -- °F
--% Chance of Precip.
Yesterday
High -- | Low -- °F
Precip. -- in
6:15 AM 8:15 PM
Waning Gibbous, 74% visible
Pressure 30.01 in
Visibility 10.0 miles
Clouds Few 1000 ft
Scattered Clouds 4100 ft
Mostly Cloudy 18000 ft
Heat Index 76 °F
Dew Point 55 °F
Humidity 58%
Rainfall 0.00 in
Snow Depth Not available.
UV 6 out of 12
Pollen 4.90 out of 12
Air Quality Not available.
Flu Activity Not available.
METAR KSFO 041956Z 27008KT 10SM FEW010 SCT041 BKN180 21/11 A3000 RMK AO2 SLP160 T02060111

More Conditions Fewer Conditions

Pressure 30.01 in
Visibility 10.0 miles
Clouds Few 1000 ft
Scattered Clouds 4100 ft
Mostly Cloudy 18000 ft
Heat Index 76 °F
Dew Point 55 °F
Humidity 58%
Rainfall 0.00 in
Snow Depth Not available.
UV 6 out of 12
Pollen 4.90 out of 12
Air Quality Not available.
Flu Activity Not available.
METAR KSFO 041956Z 27008KT 10SM FEW010 SCT041 BKN180 21/11 A3000 RMK AO2 SLP160 T02060111

More Conditions Fewer Conditions

10-Day Weather Forecast

×

Almanac

Astronomy

Aug. 04, 2015 Rise Set
Actual Time
Civil Twilight
Nautical Twilight
Astronomical Twilight
Moon
Length of Visible Light
Length of Day
Tomorrow will be .
, % of the Moon is Illuminated

Today's Extremes

State Highs State Lows

Community

WunderPhotos

Upload Photos

1,843,974 photos uploaded!

WunderBlogs® & News

Nearby

Air Quality

  Air Quality AQ Index Pollutant
Not available.

Snow Depth

Station Depth Elevation

Earthquake Activity

City Distance Mag. Time & Date
Minimum magnitude displayed is 2.5.

Coastal Water Temperatures

Place Temperature

Stations

Nearby Weather Stations

Station Location Temp. Windchill Dew Point Humidity Wind Precip. Elev Updated Type